Time;durP1;ratioP1;P1;durP2;ratioP2;P2;SDS_P1;SDS_P2;PMS_P1;PMS_P2;Temp;Humidity;BMP_temperature;BMP_pressure;BME280_temperature;BME280_humidity;BME280_pressure;Samples;Min_cycle;Max_cycle;Signal;HPM_P1;HPM_P2
2022/07/19 00:00:14;;;;;;;0.40;0.40;;;;;;;16.70;100.00;100827.13;5053175;28;20032;-48
2022/07/19 00:02:41;;;;;;;3.70;0.57;;;;;;;16.72;100.00;100822.38;5058521;28;20025;-52
2022/07/19 00:05:08;;;;;;;1.50;0.20;;;;;;;16.66;100.00;100821.41;5059204;28;20097;-48
2022/07/19 00:07:34;;;;;;;0.30;0.30;;;;;;;16.59;100.00;100826.00;5047482;28;20116;-50
2022/07/19 00:10:00;;;;;;;0.47;0.20;;;;;;;16.53;100.00;100818.88;5035131;28;20112;-46
2022/07/19 00:12:25;;;;;;;0.32;0.32;;;;;;;16.50;100.00;100827.34;5055077;28;20032;-48
2022/07/19 00:14:50;;;;;;;3.80;0.57;;;;;;;16.49;100.00;100815.00;5051789;28;20028;-47
2022/07/19 00:17:16;;;;;;;3.95;1.30;;;;;;;16.51;100.00;100820.94;5054900;28;20024;-46
2022/07/19 00:19:41;;;;;;;0.65;0.30;;;;;;;16.52;100.00;100825.25;5035220;28;20043;-50
2022/07/19 00:22:06;;;;;;;0.28;0.20;;;;;;;16.42;100.00;100824.94;5054809;28;20405;-50
2022/07/19 00:24:32;;;;;;;0.40;0.40;;;;;;;16.33;100.00;100811.03;5056715;28;20042;-52
2022/07/19 00:26:57;;;;;;;0.20;0.20;;;;;;;16.26;100.00;100810.28;5058673;28;20110;-46
2022/07/19 00:29:23;;;;;;;0.43;0.40;;;;;;;16.19;100.00;100809.56;5054622;28;20051;-48
2022/07/19 00:31:48;;;;;;;1.30;0.40;;;;;;;16.14;100.00;100810.19;5055249;28;20319;-48
2022/07/19 00:34:15;;;;;;;0.52;0.10;;;;;;;16.13;100.00;100804.03;5056401;28;20283;-48
2022/07/19 00:36:40;;;;;;;2.90;0.32;;;;;;;16.13;100.00;100798.69;5059595;28;20478;-46
2022/07/19 00:39:06;;;;;;;1.65;1.05;;;;;;;16.05;100.00;100803.47;5058100;28;20039;-46
2022/07/19 00:41:31;;;;;;;0.98;0.52;;;;;;;15.95;100.00;100797.81;5059656;28;20039;-47
2022/07/19 00:43:57;;;;;;;0.40;0.40;;;;;;;15.86;100.00;100805.28;5059878;28;20059;-49
2022/07/19 00:46:23;;;;;;;0.25;0.20;;;;;;;15.78;100.00;100798.34;5052006;28;20119;-46
2022/07/19 00:48:49;;;;;;;3.65;0.88;;;;;;;15.75;100.00;100798.81;5061976;28;20159;-46
2022/07/19 00:51:16;;;;;;;0.75;0.30;;;;;;;15.70;100.00;100796.78;5058167;28;20032;-50
2022/07/19 00:53:43;;;;;;;0.30;0.20;;;;;;;15.63;100.00;100795.97;5057985;28;20025;-47
2022/07/19 00:56:10;;;;;;;0.40;0.30;;;;;;;15.58;100.00;100786.97;5054030;28;20060;-47
2022/07/19 00:58:37;;;;;;;1.95;0.10;;;;;;;15.48;100.00;100788.25;5056062;28;20029;-47
2022/07/19 01:01:05;;;;;;;1.05;0.40;;;;;;;15.44;100.00;100787.06;5056948;28;20039;-50
2022/07/19 01:03:34;;;;;;;0.63;0.30;;;;;;;15.46;100.00;100781.47;5055508;28;20036;-48
2022/07/19 01:05:59;;;;;;;2.90;0.60;;;;;;;15.46;100.00;100778.81;5051312;28;20032;-48
2022/07/19 01:08:24;;;;;;;0.60;0.60;;;;;;;15.45;100.00;100783.34;5056878;28;20078;-45
2022/07/19 01:10:50;;;;;;;0.60;0.30;;;;;;;15.45;100.00;100780.66;5055931;28;20021;-47
2022/07/19 01:13:16;;;;;;;0.50;0.50;;;;;;;15.48;100.00;100782.91;5060334;28;20127;-46
2022/07/19 01:15:41;;;;;;;0.70;0.22;;;;;;;15.48;100.00;100782.91;5056887;28;20608;-49
2022/07/19 01:18:07;;;;;;;0.93;0.30;;;;;;;15.51;100.00;100775.50;5057120;28;20037;-46
2022/07/19 01:20:33;;;;;;;0.40;0.40;;;;;;;15.55;100.00;100776.72;5054334;28;20111;-48
2022/07/19 01:22:59;;;;;;;0.90;0.73;;;;;;;15.56;100.00;100773.00;5056532;28;20043;-48
2022/07/19 01:25:27;;;;;;;2.83;0.52;;;;;;;15.56;100.00;100764.97;5056635;28;20374;-46
2022/07/19 01:27:52;;;;;;;0.50;0.32;;;;;;;15.51;100.00;100770.97;5057758;28;20398;-51
2022/07/19 01:30:21;;;;;;;1.83;0.17;;;;;;;15.44;100.00;100771.03;5052709;28;20025;-49
2022/07/19 01:32:47;;;;;;;1.67;0.73;;;;;;;15.36;100.00;100773.97;5056462;28;20363;-48
2022/07/19 01:35:13;;;;;;;1.25;0.60;;;;;;;15.29;100.00;100773.19;5058181;28;20044;-51
2022/07/19 01:37:39;;;;;;;1.05;0.50;;;;;;;15.28;100.00;100768.84;5049976;28;20064;-50
2022/07/19 01:40:06;;;;;;;1.00;0.45;;;;;;;15.22;100.00;100765.19;5057605;28;20482;-48
2022/07/19 01:42:32;;;;;;;0.88;0.50;;;;;;;15.14;100.00;100769.97;5058432;28;20028;-48
2022/07/19 01:44:58;;;;;;;0.77;0.75;;;;;;;15.05;100.00;100772.91;5057625;28;20154;-50
2022/07/19 01:47:23;;;;;;;1.27;0.50;;;;;;;14.97;100.00;100766.97;5053539;28;20360;-50
2022/07/19 01:49:49;;;;;;;0.40;0.20;;;;;;;14.96;100.00;100760.00;5056335;28;20039;-48
2022/07/19 01:52:15;;;;;;;1.25;0.80;;;;;;;14.91;100.00;100765.97;5053740;28;20021;-48
2022/07/19 01:54:40;;;;;;;0.50;0.38;;;;;;;14.87;100.00;100767.44;5056896;28;20043;-47
2022/07/19 01:57:06;;;;;;;0.88;0.50;;;;;;;14.81;100.00;100761.06;5061265;28;20115;-48
2022/07/19 01:59:31;;;;;;;2.10;0.95;;;;;;;14.79;100.00;100768.50;5053780;28;20028;-51
2022/07/19 02:01:56;;;;;;;2.28;0.65;;;;;;;14.81;100.00;100757.59;5062715;28;20051;-46
2022/07/19 02:04:22;;;;;;;0.57;0.40;;;;;;;14.79;100.00;100743.63;5054832;28;20056;-46
2022/07/19 02:06:47;;;;;;;1.10;0.35;;;;;;;14.77;100.00;100754.53;5058043;28;20515;-46
2022/07/19 02:09:12;;;;;;;0.95;0.38;;;;;;;14.76;100.00;100746.72;5053249;28;20033;-48
2022/07/19 02:11:38;;;;;;;2.38;0.28;;;;;;;14.76;100.00;100760.09;5056041;28;20094;-46
2022/07/19 02:14:05;;;;;;;0.55;0.50;;;;;;;14.73;100.00;100745.31;5056183;28;20504;-47
2022/07/19 02:16:30;;;;;;;0.95;0.95;;;;;;;14.72;100.00;100756.22;5057287;28;20051;-46
2022/07/19 02:18:56;;;;;;;1.63;0.75;;;;;;;14.67;100.00;100753.34;5052827;28;20021;-50
2022/07/19 02:21:21;;;;;;;5.03;0.68;;;;;;;14.66;100.00;100762.38;5053835;28;20785;-47
2022/07/19 02:23:47;;;;;;;0.20;0.20;;;;;;;14.62;100.00;100759.31;5063920;28;20029;-48
2022/07/19 02:26:12;;;;;;;0.68;0.60;;;;;;;14.63;100.00;100752.94;5054568;28;20049;-47
2022/07/19 02:28:38;;;;;;;0.77;0.40;;;;;;;14.64;100.00;100743.94;5057565;28;20389;-48
2022/07/19 02:31:04;;;;;;;0.75;0.57;;;;;;;14.61;100.00;100745.16;5056726;28;20487;-46
2022/07/19 02:33:29;;;;;;;0.60;0.60;;;;;;;14.55;100.00;100745.19;5059766;28;20035;-47
2022/07/19 02:35:55;;;;;;;2.75;0.55;;;;;;;14.50;100.00;100748.44;5058162;28;20048;-48
2022/07/19 02:38:20;;;;;;;4.50;0.55;;;;;;;14.48;100.00;100741.69;5058429;28;20405;-50
2022/07/19 02:40:45;;;;;;;0.68;0.50;;;;;;;14.44;100.00;100741.28;5053685;28;20044;-49
2022/07/19 02:43:11;;;;;;;0.40;0.40;;;;;;;14.42;100.00;100743.34;5039698;28;20346;-47
2022/07/19 02:45:36;;;;;;;0.50;0.40;;;;;;;14.43;100.00;100726.31;5058142;28;20033;-51
2022/07/19 02:48:04;;;;;;;1.88;0.60;;;;;;;14.44;100.00;100737.81;5061390;28;20453;-49
2022/07/19 02:50:30;;;;;;;2.80;0.60;;;;;;;14.44;100.00;100733.28;5054626;28;20503;-49
2022/07/19 02:52:55;;;;;;;1.35;0.43;;;;;;;14.45;100.00;100740.25;5055993;28;20029;-46
2022/07/19 02:55:21;;;;;;;0.85;0.82;;;;;;;14.44;100.00;100735.13;5049629;28;20553;-47
2022/07/19 02:57:46;;;;;;;0.88;0.82;;;;;;;14.43;100.00;100729.00;5056038;28;20085;-49
2022/07/19 03:00:12;;;;;;;0.80;0.38;;;;;;;14.40;100.00;100724.03;5034766;28;20040;-50
2022/07/19 03:02:38;;;;;;;0.68;0.68;;;;;;;14.35;100.00;100719.38;5054413;28;20036;-48
2022/07/19 03:05:05;;;;;;;1.75;0.65;;;;;;;14.31;100.00;100717.31;5053306;28;20458;-51
2022/07/19 03:07:30;;;;;;;1.02;0.60;;;;;;;14.28;100.00;100715.09;5054969;28;20131;-49
2022/07/19 03:09:56;;;;;;;4.30;0.98;;;;;;;14.25;100.00;100718.13;5055996;28;20123;-48
2022/07/19 03:12:21;;;;;;;0.52;0.50;;;;;;;14.23;100.00;100717.56;5051569;28;20024;-46
2022/07/19 03:14:47;;;;;;;0.70;0.70;;;;;;;14.20;100.00;100716.13;5055998;28;20028;-46
2022/07/19 03:17:12;;;;;;;0.60;0.47;;;;;;;14.15;100.00;100713.25;5061319;28;20044;-48
2022/07/19 03:19:37;;;;;;;0.90;0.65;;;;;;;14.10;100.00;100719.22;5067985;28;20048;-48
2022/07/19 03:22:03;;;;;;;1.02;0.77;;;;;;;14.09;100.00;100704.22;5057979;28;20096;-47
2022/07/19 03:24:28;;;;;;;0.68;0.68;;;;;;;14.08;100.00;100707.13;5057340;28;20033;-50
2022/07/19 03:26:54;;;;;;;1.45;0.98;;;;;;;14.05;100.00;100703.03;5039306;28;20139;-49
2022/07/19 03:29:19;;;;;;;1.60;1.48;;;;;;;14.07;100.00;100700.97;5067091;28;20187;-49
2022/07/19 03:31:46;;;;;;;4.25;1.00;;;;;;;14.06;100.00;100696.66;5059622;28;20024;-48
2022/07/19 03:34:11;;;;;;;0.55;0.55;;;;;;;14.02;100.00;100690.13;5058783;28;20467;-45
2022/07/19 03:36:36;;;;;;;2.15;1.13;;;;;;;13.99;100.00;100685.19;5053423;28;20017;-50
2022/07/19 03:39:02;;;;;;;0.60;0.60;;;;;;;13.95;100.00;100691.97;5061494;28;20033;-50
2022/07/19 03:41:27;;;;;;;7.07;0.85;;;;;;;13.92;100.00;100687.88;5057996;28;20056;-49
2022/07/19 03:43:53;;;;;;;10.05;2.20;;;;;;;13.90;100.00;100683.78;5060981;28;20530;-47
2022/07/19 03:46:20;;;;;;;2.03;1.92;;;;;;;13.88;100.00;100685.81;5067986;28;20035;-46
2022/07/19 03:48:46;;;;;;;2.55;0.60;;;;;;;13.84;100.00;100681.94;5055149;28;20061;-50
2022/07/19 03:51:11;;;;;;;1.98;0.75;;;;;;;13.82;100.00;100681.34;5055337;28;20543;-47
2022/07/19 03:53:36;;;;;;;0.70;0.70;;;;;;;13.77;100.00;100676.63;5062447;28;20025;-50
2022/07/19 03:56:03;;;;;;;4.55;1.45;;;;;;;13.76;100.00;100677.66;5054550;28;20504;-49
2022/07/19 03:58:28;;;;;;;1.75;0.52;;;;;;;13.74;100.00;100677.84;5055251;28;20450;-50
2022/07/19 04:00:53;;;;;;;0.88;0.88;;;;;;;13.73;100.00;100684.22;5056898;28;20029;-47
2022/07/19 04:03:19;;;;;;;0.90;0.77;;;;;;;13.71;100.00;100680.94;5054385;28;20032;-48
2022/07/19 04:05:44;;;;;;;2.03;0.68;;;;;;;13.73;100.00;100686.88;5052482;28;20024;-49
2022/07/19 04:08:09;;;;;;;1.38;0.80;;;;;;;13.75;100.00;100678.66;5052154;28;20036;-50
2022/07/19 04:10:35;;;;;;;0.82;0.82;;;;;;;13.77;100.00;100673.13;5055500;28;20091;-49
2022/07/19 04:13:00;;;;;;;0.85;0.77;;;;;;;13.76;100.00;100667.00;5062996;28;20389;-49
2022/07/19 04:15:26;;;;;;;1.90;1.00;;;;;;;13.76;100.00;100672.31;5065515;28;20505;-49
2022/07/19 04:17:51;;;;;;;0.95;0.60;;;;;;;13.78;100.00;100664.91;5051222;28;20043;-50
2022/07/19 04:20:16;;;;;;;1.75;0.40;;;;;;;13.81;100.00;100669.84;5060983;28;20021;-47
2022/07/19 04:22:42;;;;;;;2.08;0.63;;;;;;;13.85;100.00;100667.59;5057005;28;20036;-48
2022/07/19 04:25:08;;;;;;;2.13;0.40;;;;;;;13.86;100.00;100667.41;5064084;28;20039;-49
2022/07/19 04:27:33;;;;;;;1.05;1.00;;;;;;;13.89;100.00;100668.81;5051060;28;20119;-48
2022/07/19 04:29:59;;;;;;;0.77;0.77;;;;;;;13.89;100.00;100656.31;5055439;28;20111;-46
2022/07/19 04:32:24;;;;;;;0.73;0.73;;;;;;;13.90;100.00;100657.13;5054255;28;20040;-48
2022/07/19 04:34:50;;;;;;;1.27;1.17;;;;;;;13.93;100.00;100659.38;5063717;28;20032;-48
2022/07/19 04:37:15;;;;;;;1.55;1.13;;;;;;;13.94;100.00;100658.34;5051520;28;20488;-48
2022/07/19 04:39:41;;;;;;;1.15;0.77;;;;;;;13.96;100.00;100651.78;5054672;28;20119;-49
2022/07/19 04:42:06;;;;;;;1.75;0.82;;;;;;;14.01;100.00;100653.81;5058887;28;20143;-51
2022/07/19 04:44:32;;;;;;;5.18;0.73;;;;;;;14.05;100.00;100646.22;5056424;28;20025;-48
2022/07/19 04:46:57;;;;;;;1.42;0.70;;;;;;;14.08;100.00;100637.81;5052999;28;20090;-50
2022/07/19 04:49:23;;;;;;;1.85;0.80;;;;;;;14.13;100.00;100638.00;5061028;28;20036;-49
2022/07/19 04:51:48;;;;;;;1.35;1.10;;;;;;;14.19;100.00;100640.63;5060969;28;20028;-51
2022/07/19 04:54:14;;;;;;;3.22;1.10;;;;;;;14.27;100.00;100636.91;5060378;28;20041;-50
2022/07/19 04:56:39;;;;;;;3.90;0.90;;;;;;;14.32;100.00;100638.94;5059819;28;20032;-49
2022/07/19 04:59:04;;;;;;;1.42;0.80;;;;;;;14.35;100.00;100634.00;5050981;28;20029;-48
2022/07/19 05:01:30;;;;;;;3.28;1.33;;;;;;;14.37;100.00;100633.78;5050948;28;20190;-49
2022/07/19 05:03:56;;;;;;;0.85;0.65;;;;;;;14.38;100.00;100628.25;5047622;28;20039;-49
2022/07/19 05:06:24;;;;;;;4.20;1.10;;;;;;;14.42;100.00;100633.97;5047737;28;20116;-48
2022/07/19 05:08:49;;;;;;;3.35;1.08;;;;;;;14.45;100.00;100635.38;5055940;28;20094;-49
2022/07/19 05:11:15;;;;;;;1.48;1.38;;;;;;;14.48;100.00;100641.13;5056228;28;20062;-46
2022/07/19 05:13:40;;;;;;;1.33;1.20;;;;;;;14.51;100.00;100630.03;5060574;28;20107;-49
2022/07/19 05:16:06;;;;;;;1.23;0.95;;;;;;;14.57;100.00;100631.06;5058515;28;20449;-50
2022/07/19 05:18:31;;;;;;;1.63;0.68;;;;;;;14.61;100.00;100635.75;5047763;28;20037;-46
2022/07/19 05:20:56;;;;;;;2.80;1.08;;;;;;;14.66;100.00;100629.75;5052654;28;20059;-52
2022/07/19 05:23:22;;;;;;;3.28;1.08;;;;;;;14.70;100.00;100630.16;5067106;28;20465;-47
2022/07/19 05:25:47;;;;;;;2.45;1.25;;;;;;;14.77;100.00;100628.28;5056421;28;20166;-48
2022/07/19 05:28:12;;;;;;;2.55;0.65;;;;;;;14.82;100.00;100631.94;5052839;28;20055;-47
2022/07/19 05:30:38;;;;;;;2.50;1.55;;;;;;;14.89;100.00;100634.53;5061713;28;20695;-47
2022/07/19 05:33:04;;;;;;;3.30;1.77;;;;;;;14.96;100.00;100629.97;5059018;28;20090;-49
2022/07/19 05:35:30;;;;;;;2.55;1.50;;;;;;;15.07;100.00;100627.66;5059943;28;20024;-49
2022/07/19 05:37:55;;;;;;;2.72;1.40;;;;;;;15.14;100.00;100623.09;5041515;28;20127;-51
2022/07/19 05:40:20;;;;;;;1.05;0.98;;;;;;;15.20;100.00;100624.88;5059630;28;20032;-46
2022/07/19 05:42:46;;;;;;;2.38;1.60;;;;;;;15.26;100.00;100616.81;5056596;28;20032;-51
2022/07/19 05:45:11;;;;;;;2.30;0.90;;;;;;;15.33;100.00;100624.75;5062790;28;20032;-48
2022/07/19 05:47:36;;;;;;;3.67;1.38;;;;;;;15.45;100.00;100601.66;5052425;28;20025;-48
2022/07/19 05:50:03;;;;;;;8.40;1.35;;;;;;;15.56;100.00;100610.78;5055603;28;20115;-46
2022/07/19 05:52:28;;;;;;;0.50;0.50;;;;;;;15.68;100.00;100605.53;5057583;28;20039;-46
2022/07/19 05:54:53;;;;;;;2.15;0.60;;;;;;;15.77;100.00;100600.75;5055555;28;20032;-48
2022/07/19 05:57:19;;;;;;;1.17;0.57;;;;;;;15.89;100.00;100599.78;5055344;28;20036;-50
2022/07/19 05:59:44;;;;;;;2.13;1.20;;;;;;;16.12;100.00;100596.41;5053180;28;20470;-51
2022/07/19 06:02:09;;;;;;;4.00;1.00;;;;;;;16.34;100.00;100593.25;5066120;28;20382;-48
2022/07/19 06:04:35;;;;;;;2.75;0.75;;;;;;;16.45;100.00;100591.69;5054188;28;20070;-46
2022/07/19 06:07:00;;;;;;;20.70;2.40;;;;;;;16.56;100.00;100594.41;5045766;28;20457;-50
2022/07/19 06:09:26;;;;;;;2.08;1.35;;;;;;;16.65;100.00;100594.91;5057298;28;20338;-47
2022/07/19 06:11:52;;;;;;;4.82;0.80;;;;;;;16.76;100.00;100598.66;5059929;28;20401;-49
2022/07/19 06:14:18;;;;;;;1.90;1.05;;;;;;;16.89;100.00;100589.66;5056635;28;20068;-48
2022/07/19 06:16:44;;;;;;;3.50;1.42;;;;;;;17.05;100.00;100588.97;5051464;28;20083;-51
2022/07/19 06:19:11;;;;;;;4.78;0.70;;;;;;;17.27;100.00;100594.59;5058340;28;20465;-47
2022/07/19 06:21:36;;;;;;;1.15;0.63;;;;;;;17.50;100.00;100584.88;5049495;28;20028;-50
2022/07/19 06:24:02;;;;;;;3.72;1.20;;;;;;;17.66;100.00;100582.31;5055055;28;20025;-52
2022/07/19 06:26:27;;;;;;;6.63;1.17;;;;;;;17.86;100.00;100587.34;5052410;28;20029;-55
2022/07/19 06:28:54;;;;;;;1.45;0.77;;;;;;;17.90;100.00;100579.63;5055439;28;20033;-53
2022/07/19 06:31:19;;;;;;;3.30;0.73;;;;;;;17.94;100.00;100586.16;5055943;28;20060;-56
2022/07/19 06:33:47;;;;;;;8.95;1.05;;;;;;;18.06;100.00;100584.25;5057760;28;20060;-52
2022/07/19 06:36:13;;;;;;;1.98;0.95;;;;;;;18.23;100.00;100583.50;5055595;28;20025;-52
2022/07/19 06:38:41;;;;;;;4.57;1.55;;;;;;;18.40;100.00;100587.03;5053780;28;20093;-51
2022/07/19 06:41:06;;;;;;;2.08;1.38;;;;;;;18.56;100.00;100584.63;5052182;28;20094;-55
2022/07/19 06:43:32;;;;;;;17.95;2.67;;;;;;;18.88;100.00;100575.03;5051516;28;20405;-52
2022/07/19 06:45:57;;;;;;;6.22;1.00;;;;;;;19.23;100.00;100571.25;5063871;28;20033;-52
2022/07/19 06:48:23;;;;;;;0.95;0.55;;;;;;;19.64;100.00;100560.25;5060898;28;20393;-53
2022/07/19 06:50:48;;;;;;;1.55;0.63;;;;;;;19.91;100.00;100563.88;5053439;28;20115;-55
2022/07/19 06:53:13;;;;;;;4.13;1.13;;;;;;;20.16;100.00;100552.59;5053975;28;20040;-56
2022/07/19 06:55:39;;;;;;;7.85;0.95;;;;;;;20.33;100.00;100551.69;5057572;28;20091;-54
2022/07/19 06:58:04;;;;;;;4.28;1.08;;;;;;;20.45;100.00;100549.66;5054859;28;20187;-55
2022/07/19 07:00:30;;;;;;;1.52;1.42;;;;;;;20.61;100.00;100537.16;5035194;28;20032;-57
2022/07/19 07:02:55;;;;;;;1.30;1.00;;;;;;;20.79;100.00;100542.16;5055068;28;20025;-57
2022/07/19 07:05:21;;;;;;;2.55;0.73;;;;;;;20.94;100.00;100543.38;5050927;28;20492;-57
2022/07/19 07:07:47;;;;;;;6.97;1.70;;;;;;;21.09;100.00;100533.50;5050741;28;20052;-57
2022/07/19 07:10:13;;;;;;;3.65;1.00;;;;;;;21.32;100.00;100531.47;5053023;28;20515;-57
2022/07/19 07:12:38;;;;;;;7.88;1.35;;;;;;;21.62;100.00;100524.66;5045145;28;20056;-53
2022/07/19 07:15:05;;;;;;;2.15;1.67;;;;;;;21.91;100.00;100520.41;5052049;28;20116;-57
2022/07/19 07:17:31;;;;;;;6.43;2.05;;;;;;;22.12;100.00;100509.69;5057647;28;20086;-57
2022/07/19 07:19:56;;;;;;;5.63;1.73;;;;;;;22.40;100.00;100495.69;5049902;28;20025;-57
2022/07/19 07:22:22;;;;;;;2.22;1.17;;;;;;;22.63;100.00;100493.53;5035859;28;20119;-56
2022/07/19 07:24:47;;;;;;;10.07;0.75;;;;;;;22.85;100.00;100488.66;5051812;28;20029;-57
2022/07/19 07:27:13;;;;;;;4.78;1.75;;;;;;;23.11;100.00;100498.66;5054962;28;20383;-56
2022/07/19 07:29:38;;;;;;;4.10;1.35;;;;;;;23.41;100.00;100493.13;5055276;28;20047;-56
2022/07/19 07:32:04;;;;;;;10.32;1.25;;;;;;;23.77;100.00;100475.97;5057173;28;20028;-57
2022/07/19 07:34:29;;;;;;;7.35;1.38;;;;;;;24.11;100.00;100470.59;5065182;28;20454;-57
2022/07/19 07:36:55;;;;;;;5.63;0.80;;;;;;;24.43;100.00;100459.28;5058700;28;20047;-57
2022/07/19 07:39:20;;;;;;;3.42;0.70;;;;;;;24.70;100.00;100471.53;5049679;28;20024;-54
2022/07/19 07:41:45;;;;;;;2.15;1.23;;;;;;;25.08;100.00;100458.13;5052679;28;20070;-56
2022/07/19 07:44:11;;;;;;;8.52;0.85;;;;;;;25.37;100.00;100456.16;5047193;28;20678;-57
2022/07/19 07:46:36;;;;;;;3.58;0.77;;;;;;;25.64;100.00;100443.91;5052872;28;20039;-55
2022/07/19 07:49:02;;;;;;;4.55;0.52;;;;;;;25.85;100.00;100452.59;5050026;28;20421;-51
2022/07/19 07:51:28;;;;;;;7.50;0.50;;;;;;;26.10;100.00;100448.69;5056317;28;20138;-54
2022/07/19 07:53:53;;;;;;;6.75;1.00;;;;;;;26.33;100.00;100449.66;5066941;28;20029;-51
2022/07/19 07:56:18;;;;;;;4.18;1.17;;;;;;;26.58;96.26;100440.31;5067877;28;20078;-51
2022/07/19 07:58:44;;;;;;;5.47;1.60;;;;;;;26.79;94.72;100437.22;5058893;28;20036;-47
2022/07/19 08:01:09;;;;;;;8.00;0.93;;;;;;;26.90;92.59;100438.63;5063996;28;20076;-51
2022/07/19 08:03:35;;;;;;;14.90;1.15;;;;;;;27.09;91.47;100436.63;5063554;28;20116;-47
2022/07/19 08:06:00;;;;;;;5.57;1.13;;;;;;;27.32;88.74;100431.31;5047429;28;20028;-46
2022/07/19 08:08:26;;;;;;;8.55;1.15;;;;;;;27.51;85.59;100434.69;5053526;28;20109;-52
2022/07/19 08:10:55;;;;;;;12.48;1.63;;;;;;;27.75;83.67;100437.16;5046951;28;20025;-49
2022/07/19 08:13:21;;;;;;;3.67;1.52;;;;;;;27.98;80.87;100439.94;5048343;28;20028;-52
2022/07/19 08:15:47;;;;;;;4.50;0.65;;;;;;;28.11;79.98;100432.81;5040445;28;20035;-49
2022/07/19 08:18:12;;;;;;;9.10;0.70;;;;;;;28.35;77.29;100425.13;5058080;28;20047;-52
2022/07/19 08:20:38;;;;;;;12.75;1.75;;;;;;;28.53;76.27;100428.00;5057582;28;20538;-50
2022/07/19 08:23:03;;;;;;;5.05;0.88;;;;;;;28.63;75.37;100433.16;5055674;28;20036;-49
2022/07/19 08:25:29;;;;;;;7.63;0.95;;;;;;;28.71;73.87;100429.69;5057272;28;20139;-54
2022/07/19 08:27:55;;;;;;;4.43;0.90;;;;;;;28.75;73.23;100425.19;5064931;28;20107;-53
2022/07/19 08:30:20;;;;;;;4.47;0.80;;;;;;;28.87;72.07;100421.88;5057616;28;20092;-54
2022/07/19 08:32:46;;;;;;;7.75;0.90;;;;;;;29.10;69.34;100417.16;5048809;28;20033;-56
2022/07/19 08:35:11;;;;;;;3.20;1.05;;;;;;;29.32;66.89;100411.59;5050653;28;20065;-51
2022/07/19 08:37:38;;;;;;;3.10;1.08;;;;;;;29.54;68.08;100407.94;5056168;28;20499;-53
2022/07/19 08:40:05;;;;;;;4.40;0.80;;;;;;;29.77;67.09;100405.06;5040306;28;20031;-48
2022/07/19 08:42:31;;;;;;;11.20;1.08;;;;;;;30.03;64.96;100407.78;5036150;28;20821;-53
2022/07/19 08:45:00;;;;;;;3.13;0.88;;;;;;;30.19;63.72;100403.41;5057498;28;20481;-47
2022/07/19 08:47:27;;;;;;;3.58;0.80;;;;;;;30.32;63.20;100393.44;5058722;28;20487;-59
2022/07/19 08:49:53;;;;;;;5.40;2.00;;;;;;;30.49;60.45;100394.50;5049051;28;20124;-51
2022/07/19 08:52:19;;;;;;;2.78;0.70;;;;;;;30.58;60.78;100396.09;5053480;28;20134;-53
2022/07/19 08:54:45;;;;;;;0.98;0.70;;;;;;;30.67;59.88;100387.84;5057714;28;20032;-52
2022/07/19 08:59:56;;;;;;;4.63;0.80;;;;;;;30.84;55.75;100392.47;5051893;28;20153;-48
2022/07/19 09:02:22;;;;;;;4.22;0.80;;;;;;;30.93;58.15;100393.22;5053905;28;20466;-48
2022/07/19 09:05:01;;;;;;;3.58;0.82;;;;;;;31.19;55.54;100389.53;5031031;28;20036;-53
2022/07/19 09:07:27;;;;;;;4.43;1.10;;;;;;;31.37;55.92;100382.81;5054367;28;20056;-50
2022/07/19 09:09:54;;;;;;;5.68;0.68;;;;;;;31.50;57.12;100380.97;5048361;28;20043;-51
2022/07/19 09:12:19;;;;;;;9.20;2.13;;;;;;;31.49;56.59;100374.66;5054133;28;20036;-52
2022/07/19 09:14:53;;;;;;;10.90;1.30;;;;;;;31.64;51.95;100375.19;5049464;28;20031;-57
2022/07/19 09:17:20;;;;;;;4.00;1.17;;;;;;;31.79;54.49;100374.59;5058002;28;20071;-50
2022/07/19 09:19:49;;;;;;;7.70;1.30;;;;;;;32.02;52.67;100368.75;5059656;28;20025;-54
2022/07/19 09:22:17;;;;;;;5.03;1.35;;;;;;;32.15;53.68;100367.66;5040860;28;20496;-56
2022/07/19 09:24:46;;;;;;;6.38;0.85;;;;;;;32.31;52.71;100374.06;5051418;28;20029;-46
2022/07/19 09:27:15;;;;;;;6.80;1.92;;;;;;;32.47;52.68;100365.16;5055205;28;20043;-47
2022/07/19 09:29:43;;;;;;;2.85;1.27;;;;;;;32.63;51.03;100362.56;5055621;28;20114;-50
2022/07/19 09:32:16;;;;;;;4.90;1.92;;;;;;;32.78;51.59;100362.69;5057806;28;20056;-52
2022/07/19 09:34:55;;;;;;;4.18;1.40;;;;;;;32.91;50.74;100365.44;5058984;28;20048;-48
2022/07/19 09:37:27;;;;;;;4.97;1.65;;;;;;;33.12;50.64;100357.91;5057334;28;20029;-52
2022/07/19 09:39:58;;;;;;;3.60;0.93;;;;;;;33.22;49.36;100360.13;5053909;28;20111;-49
2022/07/19 09:42:39;;;;;;;5.25;1.40;;;;;;;33.32;48.28;100353.38;5051164;28;20033;-51
2022/07/19 09:45:12;;;;;;;;;;;;;;;33.42;44.59;100335.59;5063656;28;20048;-49
2022/07/19 09:47:39;;;;;;;12.65;1.10;;;;;;;33.51;46.70;100339.00;5044657;28;19920;-49
2022/07/19 09:50:10;;;;;;;7.05;1.30;;;;;;;33.65;44.28;100335.88;5055708;28;20028;-60
2022/07/19 09:52:38;;;;;;;10.90;1.85;;;;;;;33.78;46.28;100331.91;5067446;28;20119;-49
2022/07/19 09:55:05;;;;;;;9.85;2.38;;;;;;;33.90;45.54;100331.06;5067523;28;20531;-50
2022/07/19 09:57:35;;;;;;;6.65;1.55;;;;;;;34.08;45.08;100334.31;5053132;28;20036;-55
2022/07/19 10:00:01;;;;;;;2.85;1.75;;;;;;;34.19;44.14;100335.38;5051837;28;20028;-49
2022/07/19 10:02:28;;;;;;;4.00;1.00;;;;;;;34.28;42.55;100324.19;5052563;28;20044;-49
2022/07/19 10:04:56;;;;;;;3.15;1.50;;;;;;;34.41;43.51;100331.19;5049930;28;20037;-51
2022/07/19 10:07:23;;;;;;;11.85;2.65;;;;;;;34.62;42.91;100330.13;5050924;28;20035;-51
2022/07/19 10:09:50;;;;;;;2.10;1.33;;;;;;;34.60;42.49;100324.22;5050497;28;20024;-49
2022/07/19 10:12:16;;;;;;;5.18;1.08;;;;;;;34.73;43.13;100326.47;5043011;28;20346;-52
2022/07/19 10:14:42;;;;;;;2.50;1.33;;;;;;;34.77;42.58;100317.50;5034721;28;20032;-53
2022/07/19 10:17:30;;;;;;;6.57;1.73;;;;;;;34.84;41.33;100317.66;5057045;28;20424;-48
2022/07/19 10:19:57;;;;;;;4.85;1.38;;;;;;;34.89;41.95;100318.19;5050549;28;20457;-52
2022/07/19 10:22:25;;;;;;;3.28;1.42;;;;;;;35.08;42.56;100322.16;5057023;28;20033;-52
2022/07/19 10:24:52;;;;;;;2.45;1.15;;;;;;;35.22;42.01;100322.47;5059284;28;20041;-52
2022/07/19 10:27:23;;;;;;;2.63;1.33;;;;;;;35.35;42.01;100315.63;5058525;28;20035;-55
2022/07/19 10:29:49;;;;;;;5.82;1.50;;;;;;;35.59;42.32;100324.78;5042029;28;20032;-52
2022/07/19 10:32:15;;;;;;;4.13;1.40;;;;;;;35.56;41.25;100308.94;5047303;28;20029;-55
2022/07/19 10:34:42;;;;;;;5.45;1.92;;;;;;;35.66;40.11;100310.34;5058926;28;20082;-49
2022/07/19 10:37:08;;;;;;;5.35;1.77;;;;;;;35.71;40.02;100302.56;5061728;28;20051;-46
2022/07/19 10:39:39;;;;;;;6.22;2.00;;;;;;;35.82;39.10;100309.06;5030921;28;20505;-54
2022/07/19 10:42:09;;;;;;;7.90;1.38;;;;;;;35.99;38.56;100299.53;5058415;28;20081;-51
2022/07/19 10:44:56;;;;;;;4.80;1.88;;;;;;;36.15;38.83;100299.44;5059949;28;20450;-52
2022/07/19 10:47:42;;;;;;;11.15;1.42;;;;;;;36.13;37.77;100298.19;5063211;28;20437;-50
2022/07/19 10:50:09;;;;;;;7.50;1.92;;;;;;;36.18;37.82;100292.38;5052562;28;20060;-52
2022/07/19 10:52:36;;;;;;;9.85;2.50;;;;;;;36.19;37.21;100291.19;5052735;28;20032;-47
2022/07/19 10:55:17;;;;;;;6.38;1.30;;;;;;;36.27;34.60;100284.63;5061667;28;20132;-47
2022/07/19 10:57:49;;;;;;;3.50;1.55;;;;;;;36.40;33.81;100276.94;5048431;28;20346;-50
2022/07/19 11:00:28;;;;;;;2.55;2.20;;;;;;;36.57;34.88;100283.94;5052487;28;20048;-54
2022/07/19 11:03:23;;;;;;;7.03;2.15;;;;;;;36.68;33.25;100271.06;5050519;28;20319;-61
2022/07/19 11:05:51;;;;;;;4.35;1.55;;;;;;;36.89;34.45;100262.25;5035019;28;20041;-58
2022/07/19 11:08:17;;;;;;;7.25;1.75;;;;;;;37.03;35.03;100262.47;5047813;28;20456;-50
2022/07/19 11:10:43;;;;;;;3.97;1.50;;;;;;;37.24;34.08;100255.63;5037796;28;20524;-52
2022/07/19 11:13:09;;;;;;;3.17;2.60;;;;;;;37.21;31.33;100250.84;5046549;28;20423;-52
2022/07/19 11:15:34;;;;;;;4.35;1.90;;;;;;;37.19;32.24;100255.94;5043142;28;20070;-51
2022/07/19 11:18:05;;;;;;;6.07;1.67;;;;;;;37.31;32.46;100256.50;5048010;28;20700;-55